Time,TemperatureF,DewpointF,PressureIn,WindDirection,WindDirectionDegrees,WindSpeedMPH,WindSpeedGustMPH,Humidity,HourlyPrecipIn,Conditions,Clouds,dailyrainin,SolarRadiationWatts/m^2,SoftwareType,DateUTC
2013-04-08 00:00:00,61.2,54.6,30.15,SSE,161,2.0,2.0,79,0.00,,---,0.00,0.00,VWS V14.01,2013-04-08 04:00:00,
2013-04-08 00:02:00,61.2,55.0,30.15,SSE,161,0.0,2.0,80,0.00,,---,0.00,0.00,VWS V14.01,2013-04-08 04:02:00,
2013-04-08 00:04:00,61.1,54.9,30.16,SSE,161,0.0,0.0,80,0.00,,---,0.00,0.00,VWS V14.01,2013-04-08 04:04:00,
2013-04-08 00:06:00,60.9,54.7,30.15,SSE,161,0.0,0.0,80,0.00,,---,0.00,0.00,VWS V14.01,2013-04-08 04:06:00,
2013-04-08 00:12:00,60.8,54.9,30.15,SSE,161,0.0,0.0,81,0.00,,---,0.00,0.00,VWS V14.01,2013-04-08 04:12:00,
2013-04-08 00:19:00,60.5,55.0,30.15,SSE,161,0.0,0.0,82,0.00,,---,0.00,0.00,VWS V14.01,2013-04-08 04:19:00,
2013-04-08 00:25:00,60.3,54.8,30.15,SSE,162,0.0,1.0,82,0.00,,---,0.00,0.00,VWS V14.01,2013-04-08 04:25:00,
2013-04-08 00:30:00,60.1,54.9,30.15,SSE,162,0.0,0.0,83,0.00,,---,0.00,0.00,VWS V14.01,2013-04-08 04:30:00,
2013-04-08 00:35:00,60.0,54.8,30.15,SSE,162,0.0,0.0,83,0.00,,---,0.00,0.00,VWS V14.01,2013-04-08 04:35:00,
2013-04-08 00:40:00,59.9,55.1,30.15,SSE,161,0.0,1.0,84,0.00,,---,0.00,0.00,VWS V14.01,2013-04-08 04:40:00,
2013-04-08 00:45:00,59.8,55.0,30.14,SSE,161,0.0,0.0,84,0.00,,---,0.00,0.00,VWS V14.01,2013-04-08 04:45:00,
2013-04-08 00:50:00,59.7,55.2,30.14,SSE,161,0.0,0.0,85,0.00,,---,0.00,0.00,VWS V14.01,2013-04-08 04:50:00,
2013-04-08 00:56:00,59.5,55.0,30.14,SSE,161,0.0,0.0,85,0.00,,---,0.00,0.00,VWS V14.01,2013-04-08 04:56:00,
2013-04-08 01:01:00,59.4,54.9,30.14,SSE,161,0.0,1.0,85,0.00,,---,0.00,0.00,VWS V14.01,2013-04-08 05:01:00,
2013-04-08 01:06:00,59.3,55.1,30.14,SSE,161,0.0,0.0,86,0.00,,---,0.00,0.00,VWS V14.01,2013-04-08 05:06:00,
2013-04-08 01:11:00,59.2,55.0,30.14,SSE,161,0.0,0.0,86,0.00,,---,0.00,0.00,VWS V14.01,2013-04-08 05:11:00,
2013-04-08 01:16:00,59.2,55.0,30.14,SSE,161,0.0,0.0,86,0.00,,---,0.00,0.00,VWS V14.01,2013-04-08 05:16:00,
2013-04-08 01:21:00,59.0,54.8,30.14,SSE,161,0.0,0.0,86,0.00,,---,0.00,0.00,VWS V14.01,2013-04-08 05:21:00,
2013-04-08 01:26:00,58.9,55.0,30.14,SSE,161,0.0,0.0,87,0.00,,---,0.00,0.00,VWS V14.01,2013-04-08 05:26:00,
2013-04-08 01:31:00,58.8,55.0,30.14,SSE,161,0.0,0.0,87,0.00,,---,0.00,0.00,VWS V14.01,2013-04-08 05:31:00,
2013-04-08 01:36:00,58.6,54.8,30.14,SSE,161,0.0,0.0,87,0.00,,---,0.00,0.00,VWS V14.01,2013-04-08 05:36:00,
2013-04-08 01:41:00,58.5,54.7,30.14,SSE,161,0.0,0.0,87,0.00,,---,0.00,0.00,VWS V14.01,2013-04-08 05:41:00,
2013-04-08 01:46:00,58.4,54.9,30.14,SSE,161,0.0,0.0,88,0.00,,---,0.00,0.00,VWS V14.01,2013-04-08 05:46:00,
2013-04-08 01:52:00,58.3,54.8,30.14,SSE,161,0.0,0.0,88,0.00,,---,0.00,0.00,VWS V14.01,2013-04-08 05:52:00,
2013-04-08 01:57:00,58.2,54.7,30.14,SSE,161,0.0,0.0,88,0.00,,---,0.00,0.00,VWS V14.01,2013-04-08 05:57:00,
2013-04-08 02:02:00,58.0,54.8,30.14,SSE,161,0.0,0.0,89,0.00,,---,0.00,0.00,VWS V14.01,2013-04-08 06:02:00,
2013-04-08 02:07:00,57.9,54.4,30.14,SSE,161,0.0,0.0,88,0.00,,---,0.00,0.00,VWS V14.01,2013-04-08 06:07:00,
2013-04-08 02:12:00,57.7,54.2,30.13,SSE,161,0.0,0.0,88,0.00,,---,0.00,0.00,VWS V14.01,2013-04-08 06:12:00,
2013-04-08 02:17:00,57.4,54.2,30.13,SSE,161,0.0,0.0,89,0.00,,---,0.00,0.00,VWS V14.01,2013-04-08 06:17:00,
2013-04-08 02:53:00,56.2,53.3,30.12,SSE,161,0.0,0.0,90,0.00,,---,0.00,0.00,VWS V14.01,2013-04-08 06:53:00,
2013-04-08 02:58:00,55.9,53.0,30.13,SSE,161,0.0,0.0,90,0.00,,---,0.00,0.00,VWS V14.01,2013-04-08 06:58:00,
2013-04-08 03:03:00,55.8,53.2,30.14,SSE,161,0.0,0.0,91,0.00,,---,0.00,0.00,VWS V14.01,2013-04-08 07:03:00,
2013-04-08 03:08:00,55.6,53.0,30.13,SSE,161,0.0,0.0,91,0.00,,---,0.00,0.00,VWS V14.01,2013-04-08 07:08:00,
2013-04-08 03:13:00,55.5,52.9,30.13,SSE,161,0.0,0.0,91,0.00,,---,0.00,0.00,VWS V14.01,2013-04-08 07:13:00,
2013-04-08 03:18:00,55.3,52.7,30.13,SSE,161,0.0,0.0,91,0.00,,---,0.00,0.00,VWS V14.01,2013-04-08 07:18:00,
2013-04-08 03:24:00,55.3,52.7,30.13,SSE,161,0.0,0.0,91,0.00,,---,0.00,0.00,VWS V14.01,2013-04-08 07:24:00,
2013-04-08 03:29:00,55.1,52.5,30.12,SSE,161,0.0,0.0,91,0.00,,---,0.00,0.00,VWS V14.01,2013-04-08 07:29:00,
2013-04-08 03:34:00,55.0,52.7,30.12,SSE,161,0.0,0.0,92,0.00,,---,0.00,0.00,VWS V14.01,2013-04-08 07:34:00,
2013-04-08 03:39:00,54.9,52.6,30.13,SSE,161,0.0,0.0,92,0.00,,---,0.00,0.00,VWS V14.01,2013-04-08 07:39:00,
2013-04-08 03:44:00,54.8,52.5,30.12,SSE,161,0.0,0.0,92,0.00,,---,0.00,0.00,VWS V14.01,2013-04-08 07:44:00,
2013-04-08 03:50:00,54.7,52.4,30.12,SSE,161,0.0,0.0,92,0.00,,---,0.00,0.00,VWS V14.01,2013-04-08 07:50:00,
2013-04-08 03:55:00,54.6,52.3,30.12,SSE,161,0.0,2.0,92,0.00,,---,0.00,0.00,VWS V14.01,2013-04-08 07:55:00,
2013-04-08 04:00:00,54.5,52.2,30.13,SSE,161,0.0,0.0,92,0.00,,---,0.00,0.00,VWS V14.01,2013-04-08 08:00:00,
2013-04-08 04:05:00,54.5,52.5,30.13,SSE,161,0.0,0.0,93,0.00,,---,0.00,0.00,VWS V14.01,2013-04-08 08:05:00,
2013-04-08 04:10:00,54.4,52.4,30.13,SSE,161,0.0,1.0,93,0.00,,---,0.00,0.00,VWS V14.01,2013-04-08 08:10:00,
2013-04-08 04:15:00,54.4,52.4,30.12,SSE,161,0.0,0.0,93,0.00,,---,0.00,0.00,VWS V14.01,2013-04-08 08:15:00,
2013-04-08 04:20:00,54.4,52.4,30.12,SSE,161,0.0,0.0,93,0.00,,---,0.00,0.00,VWS V14.01,2013-04-08 08:20:00,
2013-04-08 04:25:00,54.4,52.4,30.12,SSE,161,0.0,0.0,93,0.00,,---,0.00,0.00,VWS V14.01,2013-04-08 08:25:00,
2013-04-08 04:31:00,54.5,52.5,30.13,SSE,161,0.0,0.0,93,0.00,,---,0.00,0.00,VWS V14.01,2013-04-08 08:31:00,
2013-04-08 04:36:00,54.5,52.5,30.13,SSE,161,0.0,0.0,93,0.00,,---,0.00,0.00,VWS V14.01,2013-04-08 08:36:00,
2013-04-08 04:41:00,54.4,52.4,30.13,SSE,161,0.0,0.0,93,0.00,,---,0.00,0.00,VWS V14.01,2013-04-08 08:41:00,
2013-04-08 04:46:00,54.3,52.3,30.12,SSE,161,0.0,0.0,93,0.00,,---,0.00,0.00,VWS V14.01,2013-04-08 08:46:00,
2013-04-08 04:51:00,54.1,52.1,30.12,SSE,161,0.0,0.0,93,0.00,,---,0.00,0.00,VWS V14.01,2013-04-08 08:51:00,
2013-04-08 04:56:00,54.1,52.1,30.12,SSE,161,0.0,0.0,93,0.00,,---,0.00,0.00,VWS V14.01,2013-04-08 08:56:00,
2013-04-08 05:02:00,54.1,52.1,30.12,SSE,161,0.0,0.0,93,0.00,,---,0.00,0.00,VWS V14.01,2013-04-08 09:02:00,
2013-04-08 05:07:00,54.2,52.5,30.12,SSE,161,0.0,0.0,94,0.00,,---,0.00,0.00,VWS V14.01,2013-04-08 09:07:00,
2013-04-08 05:12:00,54.2,52.5,30.12,SSE,161,0.0,0.0,94,0.00,,---,0.00,0.00,VWS V14.01,2013-04-08 09:12:00,
2013-04-08 05:17:00,54.2,52.5,30.12,SSE,161,0.0,0.0,94,0.00,,---,0.00,0.00,VWS V14.01,2013-04-08 09:17:00,
2013-04-08 05:22:00,54.1,52.4,30.12,SSE,161,0.0,0.0,94,0.00,,---,0.00,0.00,VWS V14.01,2013-04-08 09:22:00,
2013-04-08 05:27:00,54.1,52.4,30.12,SSE,161,0.0,0.0,94,0.00,,---,0.00,0.00,VWS V14.01,2013-04-08 09:27:00,
2013-04-08 05:32:00,54.1,52.4,30.12,SSE,161,0.0,0.0,94,0.00,,---,0.00,0.00,VWS V14.01,2013-04-08 09:32:00,
2013-04-08 05:37:00,54.0,52.3,30.12,SSE,161,0.0,0.0,94,0.00,,---,0.00,0.00,VWS V14.01,2013-04-08 09:37:00,
2013-04-08 05:44:00,53.9,51.9,30.12,SSE,161,0.0,0.0,93,0.00,,---,0.00,0.00,VWS V14.01,2013-04-08 09:44:00,
2013-04-08 05:50:00,53.5,51.5,30.13,SSE,161,0.0,0.0,93,0.00,,---,0.00,0.00,VWS V14.01,2013-04-08 09:50:00,
2013-04-08 05:55:00,53.1,51.1,30.13,SSE,161,1.0,2.0,93,0.00,,---,0.00,0.00,VWS V14.01,2013-04-08 09:55:00,
2013-04-08 06:00:00,52.8,50.8,30.13,SSE,161,0.0,0.0,93,0.00,,---,0.00,0.00,VWS V14.01,2013-04-08 10:00:00,
2013-04-08 06:05:00,52.6,50.6,30.13,SSE,161,0.0,0.0,93,0.00,,---,0.00,0.00,VWS V14.01,2013-04-08 10:05:00,
2013-04-08 06:10:00,52.5,50.5,30.13,SSE,161,0.0,0.0,93,0.00,,---,0.00,0.00,VWS V14.01,2013-04-08 10:10:00,
2013-04-08 06:15:00,52.4,50.4,30.13,SSE,161,1.0,1.0,93,0.00,,---,0.00,0.00,VWS V14.01,2013-04-08 10:15:00,
2013-04-08 06:21:00,52.4,50.7,30.13,SSE,161,0.0,0.0,94,0.00,,---,0.00,0.00,VWS V14.01,2013-04-08 10:21:00,
2013-04-08 06:26:00,52.4,50.7,30.14,SSE,161,0.0,0.0,94,0.00,,---,0.00,0.00,VWS V14.01,2013-04-08 10:26:00,
2013-04-08 06:31:00,52.4,50.7,30.14,SSE,161,0.0,0.0,94,0.00,,---,0.00,0.00,VWS V14.01,2013-04-08 10:31:00,
2013-04-08 06:36:00,52.4,50.7,30.14,SSE,161,0.0,0.0,94,0.00,,---,0.00,0.00,VWS V14.01,2013-04-08 10:36:00,
2013-04-08 06:42:00,52.2,50.5,30.15,SSE,161,0.0,0.0,94,0.00,,---,0.00,0.00,VWS V14.01,2013-04-08 10:42:00,
2013-04-08 06:47:00,52.0,50.3,30.15,SSE,161,0.0,0.0,94,0.00,,---,0.00,0.00,VWS V14.01,2013-04-08 10:47:00,
2013-04-08 06:52:00,51.8,50.1,30.15,SSE,161,0.0,0.0,94,0.00,,---,0.00,0.00,VWS V14.01,2013-04-08 10:52:00,
2013-04-08 06:57:00,51.7,50.0,30.15,SSE,161,0.0,0.0,94,0.00,,---,0.00,0.00,VWS V14.01,2013-04-08 10:57:00,
2013-04-08 07:02:00,51.5,49.8,30.15,SSE,161,0.0,0.0,94,0.00,,---,0.00,0.00,VWS V14.01,2013-04-08 11:02:00,
2013-04-08 07:07:00,51.4,49.7,30.16,SSE,161,0.0,0.0,94,0.00,,---,0.00,5.00,VWS V14.01,2013-04-08 11:07:00,
2013-04-08 07:12:00,51.2,49.5,30.16,SSE,161,0.0,0.0,94,0.00,,---,0.00,9.00,VWS V14.01,2013-04-08 11:12:00,
2013-04-08 07:17:00,51.1,49.4,30.16,SSE,161,0.0,0.0,94,0.00,,---,0.00,14.00,VWS V14.01,2013-04-08 11:17:00,
2013-04-08 07:23:00,51.0,49.3,30.16,SSE,161,0.0,1.0,94,0.00,,---,0.00,21.00,VWS V14.01,2013-04-08 11:23:00,
2013-04-08 07:28:00,50.8,49.1,30.17,SSE,161,0.0,0.0,94,0.00,,---,0.00,28.00,VWS V14.01,2013-04-08 11:28:00,
2013-04-08 07:33:00,50.8,49.1,30.17,SSE,161,0.0,0.0,94,0.00,,---,0.00,35.00,VWS V14.01,2013-04-08 11:33:00,
2013-04-08 07:38:00,50.8,49.1,30.16,SSE,161,0.0,0.0,94,0.00,,---,0.00,39.00,VWS V14.01,2013-04-08 11:38:00,
2013-04-08 07:43:00,50.9,49.2,30.17,SSE,161,0.0,0.0,94,0.00,,---,0.00,49.00,VWS V14.01,2013-04-08 11:43:00,
2013-04-08 07:49:00,51.1,49.4,30.17,SSE,161,0.0,0.0,94,0.00,,---,0.00,65.00,VWS V14.01,2013-04-08 11:49:00,
2013-04-08 07:54:00,51.3,49.9,30.17,SSE,161,0.0,0.0,95,0.00,,---,0.00,83.00,VWS V14.01,2013-04-08 11:54:00,
2013-04-08 07:59:00,51.7,50.3,30.17,SSE,161,0.0,1.0,95,0.00,,---,0.00,100.00,VWS V14.01,2013-04-08 11:59:00,
2013-04-08 08:04:00,51.9,50.5,30.17,SSE,161,0.0,0.0,95,0.00,,---,0.00,121.00,VWS V14.01,2013-04-08 12:04:00,
2013-04-08 08:09:00,52.3,50.9,30.18,SSE,161,0.0,0.0,95,0.00,,---,0.00,105.00,VWS V14.01,2013-04-08 12:09:00,
2013-04-08 08:15:00,52.6,51.2,30.18,SSE,161,0.0,0.0,95,0.00,,---,0.00,93.00,VWS V14.01,2013-04-08 12:15:00,
2013-04-08 08:20:00,53.0,51.6,30.18,SSE,161,0.0,0.0,95,0.00,,---,0.00,107.00,VWS V14.01,2013-04-08 12:20:00,
2013-04-08 08:25:00,53.3,51.9,30.18,SSE,161,0.0,0.0,95,0.00,,---,0.00,121.00,VWS V14.01,2013-04-08 12:25:00,
2013-04-08 08:30:00,53.7,52.3,30.18,SSE,161,0.0,0.0,95,0.00,,---,0.00,151.00,VWS V14.01,2013-04-08 12:30:00,
2013-04-08 08:35:00,54.0,52.9,30.18,SSE,161,0.0,0.0,96,0.00,,---,0.00,149.00,VWS V14.01,2013-04-08 12:35:00,
2013-04-08 08:41:00,54.5,53.4,30.18,SSE,161,0.0,0.0,96,0.00,,---,0.00,149.00,VWS V14.01,2013-04-08 12:41:00,
2013-04-08 08:46:00,55.1,54.0,30.18,SSE,161,0.0,0.0,96,0.00,,---,0.00,169.00,VWS V14.01,2013-04-08 12:46:00,
2013-04-08 08:51:00,55.7,54.6,30.18,SSE,161,0.0,0.0,96,0.00,,---,0.00,149.00,VWS V14.01,2013-04-08 12:51:00,
2013-04-08 08:56:00,56.2,55.1,30.18,SSE,156,0.0,0.0,96,0.00,,---,0.00,158.00,VWS V14.01,2013-04-08 12:56:00,
2013-04-08 09:01:00,56.8,55.7,30.18,SSE,161,0.0,0.0,96,0.00,,---,0.00,309.00,VWS V14.01,2013-04-08 13:01:00,
2013-04-08 09:07:00,57.5,56.4,30.18,SSE,161,0.0,0.0,96,0.00,,---,0.00,192.00,VWS V14.01,2013-04-08 13:07:00,
2013-04-08 09:12:00,58.1,57.0,30.18,SSE,162,0.0,0.0,96,0.00,,---,0.00,274.00,VWS V14.01,2013-04-08 13:12:00,
2013-04-08 09:17:00,58.7,57.6,30.18,SSW,194,0.0,4.0,96,0.00,,---,0.00,336.00,VWS V14.01,2013-04-08 13:17:00,
2013-04-08 09:22:00,59.1,58.0,30.18,SSW,202,0.0,0.0,96,0.00,,---,0.00,355.00,VWS V14.01,2013-04-08 13:22:00,
2013-04-08 09:27:00,59.5,58.4,30.18,SSW,205,0.0,0.0,96,0.00,,---,0.00,411.00,VWS V14.01,2013-04-08 13:27:00,
2013-04-08 09:32:00,59.8,58.7,30.19,SSW,205,0.0,0.0,96,0.00,,---,0.00,446.00,VWS V14.01,2013-04-08 13:32:00,
2013-04-08 09:37:00,60.3,59.2,30.19,SSW,213,1.0,1.0,96,0.00,,---,0.00,473.00,VWS V14.01,2013-04-08 13:37:00,
2013-04-08 09:42:00,60.9,59.8,30.19,SSW,213,5.0,6.0,96,0.00,,---,0.00,462.00,VWS V14.01,2013-04-08 13:42:00,
2013-04-08 09:47:00,61.6,60.2,30.19,SW,214,0.0,6.0,95,0.00,,---,0.00,522.00,VWS V14.01,2013-04-08 13:47:00,
2013-04-08 09:52:00,62.5,60.5,30.19,SW,230,0.0,2.0,93,0.00,,---,0.00,510.00,VWS V14.01,2013-04-08 13:52:00,
2013-04-08 09:57:00,63.4,60.7,30.19,SSW,204,0.0,1.0,91,0.00,,---,0.00,561.00,VWS V14.01,2013-04-08 13:57:00,
2013-04-08 10:02:00,64.4,60.8,30.19,SSW,208,0.0,1.0,88,0.00,,---,0.00,582.00,VWS V14.01,2013-04-08 14:02:00,
2013-04-08 10:08:00,65.3,60.7,30.19,SSW,207,0.0,3.0,85,0.00,,---,0.00,568.00,VWS V14.01,2013-04-08 14:08:00,
2013-04-08 10:13:00,66.5,60.8,30.19,SW,225,6.0,6.0,82,0.00,,---,0.00,735.00,VWS V14.01,2013-04-08 14:13:00,
2013-04-08 10:18:00,67.5,60.8,30.18,SSW,211,3.0,7.0,79,0.00,,---,0.00,397.00,VWS V14.01,2013-04-08 14:18:00,
2013-04-08 10:23:00,68.3,60.5,30.18,WSW,246,7.0,7.0,76,0.00,,---,0.00,601.00,VWS V14.01,2013-04-08 14:23:00,
2013-04-08 10:28:00,68.9,60.3,30.19,WSW,254,6.0,10.0,74,0.00,,---,0.00,751.00,VWS V14.01,2013-04-08 14:28:00,
2013-04-08 10:33:00,69.3,59.9,30.19,SW,227,4.0,9.0,72,0.00,,---,0.00,461.00,VWS V14.01,2013-04-08 14:33:00,
2013-04-08 10:38:00,69.7,60.3,30.19,WSW,254,9.0,9.0,72,0.00,,---,0.00,608.00,VWS V14.01,2013-04-08 14:38:00,
2013-04-08 10:43:00,70.0,59.8,30.19,South,191,5.0,11.0,70,0.00,,---,0.00,429.00,VWS V14.01,2013-04-08 14:43:00,
2013-04-08 10:48:00,70.3,60.1,30.19,SSW,210,6.0,8.0,70,0.00,,---,0.00,418.00,VWS V14.01,2013-04-08 14:48:00,
2013-04-08 10:53:00,70.7,59.6,30.19,SSW,198,6.0,12.0,68,0.00,,---,0.00,664.00,VWS V14.01,2013-04-08 14:53:00,
2013-04-08 10:59:00,71.1,59.2,30.19,WSW,250,6.0,11.0,66,0.00,,---,0.00,531.00,VWS V14.01,2013-04-08 14:59:00,
2013-04-08 11:04:00,71.3,58.9,30.19,SW,230,5.0,11.0,65,0.00,,---,0.00,513.00,VWS V14.01,2013-04-08 15:04:00,
2013-04-08 11:09:00,71.5,59.1,30.19,SW,221,5.0,9.0,65,0.00,,---,0.00,564.00,VWS V14.01,2013-04-08 15:09:00,
2013-04-08 11:14:00,72.0,60.0,30.19,South,191,3.0,8.0,66,0.00,,---,0.00,645.00,VWS V14.01,2013-04-08 15:14:00,
2013-04-08 11:20:00,72.5,59.6,30.19,SSW,205,4.0,7.0,64,0.00,,---,0.00,624.00,VWS V14.01,2013-04-08 15:20:00,
2013-04-08 11:25:00,73.0,59.7,30.19,SW,224,4.0,6.0,63,0.00,,---,0.00,526.00,VWS V14.01,2013-04-08 15:25:00,
2013-04-08 11:30:00,73.4,60.0,30.19,SSW,213,3.0,5.0,63,0.00,,---,0.00,585.00,VWS V14.01,2013-04-08 15:30:00,
2013-04-08 11:35:00,74.0,59.7,30.18,SW,215,3.0,10.0,61,0.00,,---,0.00,960.00,VWS V14.01,2013-04-08 15:35:00,
2013-04-08 11:40:00,74.4,60.1,30.18,South,178,0.0,7.0,61,0.00,,---,0.00,726.00,VWS V14.01,2013-04-08 15:40:00,
2013-04-08 11:45:00,75.1,60.3,30.19,SW,219,4.0,8.0,60,0.00,,---,0.00,710.00,VWS V14.01,2013-04-08 15:45:00,
2013-04-08 11:51:00,75.0,59.2,30.19,SW,219,7.0,11.0,58,0.00,,---,0.00,466.00,VWS V14.01,2013-04-08 15:51:00,
2013-04-08 11:56:00,74.8,60.0,30.18,SSW,192,4.0,9.0,60,0.00,,---,0.00,1090.00,VWS V14.01,2013-04-08 15:56:00,
2013-04-08 12:02:00,74.9,59.1,30.18,SW,215,12.0,12.0,58,0.00,,---,0.00,598.00,VWS V14.01,2013-04-08 16:02:00,
2013-04-08 12:07:00,75.1,58.8,30.18,WSW,251,7.0,7.0,57,0.00,,---,0.00,939.00,VWS V14.01,2013-04-08 16:07:00,
2013-04-08 12:12:00,75.6,59.3,30.18,SW,234,6.0,9.0,57,0.00,,---,0.00,988.00,VWS V14.01,2013-04-08 16:12:00,
2013-04-08 12:17:00,76.3,60.0,30.18,SW,223,7.0,10.0,57,0.00,,---,0.00,1016.00,VWS V14.01,2013-04-08 16:17:00,
2013-04-08 12:22:00,76.2,59.4,30.18,West,265,0.0,4.0,56,0.00,,---,0.00,951.00,VWS V14.01,2013-04-08 16:22:00,
2013-04-08 12:27:00,76.7,59.3,30.18,SW,229,10.0,11.0,55,0.00,,---,0.00,933.00,VWS V14.01,2013-04-08 16:27:00,
2013-04-08 12:32:00,76.8,59.9,30.18,South,176,4.0,8.0,56,0.00,,---,0.00,939.00,VWS V14.01,2013-04-08 16:32:00,
2013-04-08 12:38:00,76.8,58.9,30.17,West,279,0.0,5.0,54,0.00,,---,0.00,958.00,VWS V14.01,2013-04-08 16:38:00,
2013-04-08 12:43:00,77.4,60.0,30.16,WSW,245,6.0,7.0,55,0.00,,---,0.00,976.00,VWS V14.01,2013-04-08 16:43:00,
2013-04-08 12:48:00,77.5,59.6,30.16,South,189,3.0,8.0,54,0.00,,---,0.00,930.00,VWS V14.01,2013-04-08 16:48:00,
2013-04-08 12:54:00,77.4,59.0,30.16,SW,227,9.0,12.0,53,0.00,,---,0.00,991.00,VWS V14.01,2013-04-08 16:54:00,
2013-04-08 12:59:00,77.4,60.0,30.16,SSE,153,0.0,4.0,55,0.00,,---,0.00,1032.00,VWS V14.01,2013-04-08 16:59:00,
2013-04-08 13:04:00,78.8,59.7,30.16,SSW,205,4.0,11.0,52,0.00,,---,0.00,1097.00,VWS V14.01,2013-04-08 17:04:00,
2013-04-08 13:09:00,78.6,59.0,30.15,SSW,212,3.0,11.0,51,0.00,,---,0.00,1067.00,VWS V14.01,2013-04-08 17:09:00,
2013-04-08 13:14:00,78.0,59.5,30.15,SSE,159,0.0,1.0,53,0.00,,---,0.00,1099.00,VWS V14.01,2013-04-08 17:14:00,
2013-04-08 13:19:00,77.9,58.3,30.15,SE,145,6.0,8.0,51,0.00,,---,0.00,1162.00,VWS V14.01,2013-04-08 17:19:00,
2013-04-08 13:25:00,78.0,58.4,30.15,SSW,198,7.0,9.0,51,0.00,,---,0.00,308.00,VWS V14.01,2013-04-08 17:25:00,
2013-04-08 13:30:00,77.5,58.0,30.15,SW,217,0.0,7.0,51,0.00,,---,0.00,353.00,VWS V14.01,2013-04-08 17:30:00,
2013-04-08 13:35:00,77.5,57.4,30.15,SW,217,2.0,3.0,50,0.00,,---,0.00,1090.00,VWS V14.01,2013-04-08 17:35:00,
2013-04-08 13:40:00,78.7,60.7,30.14,WSW,246,6.0,7.0,54,0.00,,---,0.00,1058.00,VWS V14.01,2013-04-08 17:40:00,
2013-04-08 13:46:00,78.8,59.7,30.14,SW,235,0.0,5.0,52,0.00,,---,0.00,1030.00,VWS V14.01,2013-04-08 17:46:00,
2013-04-08 13:51:00,79.1,58.3,30.14,SSE,159,1.0,2.0,49,0.00,,---,0.00,248.00,VWS V14.01,2013-04-08 17:51:00,
2013-04-08 13:57:00,78.8,58.0,30.13,SW,224,8.0,12.0,49,0.00,,---,0.00,308.00,VWS V14.01,2013-04-08 17:57:00,
2013-04-08 14:02:00,78.8,58.6,30.13,WSW,240,7.0,9.0,50,0.00,,---,0.00,1139.00,VWS V14.01,2013-04-08 18:02:00,
2013-04-08 14:07:00,79.3,57.9,30.13,West,268,10.0,12.0,48,0.00,,---,0.00,1088.00,VWS V14.01,2013-04-08 18:07:00,
2013-04-08 14:12:00,79.3,59.1,30.13,SSW,192,4.0,4.0,50,0.00,,---,0.00,1048.00,VWS V14.01,2013-04-08 18:12:00,
2013-04-08 14:17:00,80.0,59.7,30.13,South,172,5.0,11.0,50,0.00,,---,0.00,1048.00,VWS V14.01,2013-04-08 18:17:00,
2013-04-08 14:22:00,80.5,59.0,30.13,WSW,254,6.0,9.0,48,0.00,,---,0.00,1049.00,VWS V14.01,2013-04-08 18:22:00,
2013-04-08 14:27:00,80.1,58.1,30.13,WSW,239,0.0,9.0,47,0.00,,---,0.00,1030.00,VWS V14.01,2013-04-08 18:27:00,
2013-04-08 14:33:00,80.1,59.2,30.13,SE,145,6.0,12.0,49,0.00,,---,0.00,1007.00,VWS V14.01,2013-04-08 18:33:00,
2013-04-08 14:38:00,80.2,58.2,30.12,SW,222,7.0,7.0,47,0.00,,---,0.00,1011.00,VWS V14.01,2013-04-08 18:38:00,
2013-04-08 14:43:00,80.5,57.8,30.13,SW,233,5.0,11.0,46,0.00,,---,0.00,1016.00,VWS V14.01,2013-04-08 18:43:00,
2013-04-08 14:48:00,80.6,59.1,30.12,SW,221,10.0,11.0,48,0.00,,---,0.00,953.00,VWS V14.01,2013-04-08 18:48:00,
2013-04-08 14:53:00,80.3,58.2,30.12,South,190,0.0,8.0,47,0.00,,---,0.00,972.00,VWS V14.01,2013-04-08 18:53:00,
2013-04-08 14:58:00,80.1,57.5,30.12,SSE,157,1.0,5.0,46,0.00,,---,0.00,257.00,VWS V14.01,2013-04-08 18:58:00,
2013-04-08 15:03:00,79.6,58.8,30.12,SSE,162,5.0,7.0,49,0.00,,---,0.00,1049.00,VWS V14.01,2013-04-08 19:03:00,
2013-04-08 15:08:00,79.9,57.9,30.12,WSW,251,5.0,8.0,47,0.00,,---,0.00,274.00,VWS V14.01,2013-04-08 19:08:00,
2013-04-08 15:14:00,79.7,57.7,30.11,SW,231,4.0,10.0,47,0.00,,---,0.00,338.00,VWS V14.01,2013-04-08 19:14:00,
2013-04-08 15:19:00,79.3,57.3,30.11,SSW,196,1.0,8.0,47,0.00,,---,0.00,316.00,VWS V14.01,2013-04-08 19:19:00,
2013-04-08 15:24:00,79.2,56.7,30.11,SW,225,6.0,8.0,46,0.00,,---,0.00,990.00,VWS V14.01,2013-04-08 19:24:00,
2013-04-08 15:30:00,80.3,58.2,30.11,South,171,1.0,11.0,47,0.00,,---,0.00,875.00,VWS V14.01,2013-04-08 19:30:00,
2013-04-08 15:35:00,81.0,57.7,30.10,SW,229,8.0,11.0,45,0.00,,---,0.00,782.00,VWS V14.01,2013-04-08 19:35:00,
2013-04-08 15:40:00,81.3,58.0,30.10,SSW,202,0.0,9.0,45,0.00,,---,0.00,759.00,VWS V14.01,2013-04-08 19:40:00,
2013-04-08 15:45:00,81.1,57.8,30.10,SW,223,1.0,8.0,45,0.00,,---,0.00,687.00,VWS V14.01,2013-04-08 19:45:00,
2013-04-08 15:51:00,81.6,56.3,30.10,SSW,199,2.0,7.0,42,0.00,,---,0.00,276.00,VWS V14.01,2013-04-08 19:51:00,
2013-04-08 15:56:00,81.1,57.2,30.10,SSW,213,6.0,14.0,44,0.00,,---,0.00,287.00,VWS V14.01,2013-04-08 19:56:00,
2013-04-08 16:01:00,80.2,57.0,30.10,SSE,147,0.0,10.0,45,0.00,,---,0.00,341.00,VWS V14.01,2013-04-08 20:01:00,
2013-04-08 16:06:00,79.8,56.6,30.10,South,171,1.0,7.0,45,0.00,,---,0.00,336.00,VWS V14.01,2013-04-08 20:06:00,
2013-04-08 16:11:00,80.5,57.2,30.09,East,97,4.0,5.0,45,0.00,,---,0.00,814.00,VWS V14.01,2013-04-08 20:11:00,
2013-04-08 16:17:00,81.2,57.9,30.09,SSW,209,4.0,6.0,45,0.00,,---,0.00,758.00,VWS V14.01,2013-04-08 20:17:00,
2013-04-08 16:22:00,81.8,57.1,30.09,SSW,205,0.0,5.0,43,0.00,,---,0.00,729.00,VWS V14.01,2013-04-08 20:22:00,
2013-04-08 16:27:00,81.6,57.0,30.09,SW,236,6.0,9.0,43,0.00,,---,0.00,719.00,VWS V14.01,2013-04-08 20:27:00,
2013-04-08 16:32:00,81.4,57.4,30.09,SSW,197,2.0,8.0,44,0.00,,---,0.00,707.00,VWS V14.01,2013-04-08 20:32:00,
2013-04-08 16:37:00,81.3,57.3,30.09,SE,141,7.0,7.0,44,0.00,,---,0.00,687.00,VWS V14.01,2013-04-08 20:37:00,
2013-04-08 16:42:00,81.4,59.3,30.08,SW,217,2.0,7.0,47,0.00,,---,0.00,656.00,VWS V14.01,2013-04-08 20:42:00,
2013-04-08 16:47:00,81.7,57.7,30.09,SSW,211,3.0,11.0,44,0.00,,---,0.00,638.00,VWS V14.01,2013-04-08 20:47:00,
2013-04-08 16:52:00,81.6,57.6,30.08,SW,225,8.0,8.0,44,0.00,,---,0.00,626.00,VWS V14.01,2013-04-08 20:52:00,
2013-04-08 16:58:00,81.6,56.3,30.08,SW,232,6.0,7.0,42,0.00,,---,0.00,592.00,VWS V14.01,2013-04-08 20:58:00,
2013-04-08 17:03:00,81.5,56.2,30.08,South,172,0.0,2.0,42,0.00,,---,0.00,571.00,VWS V14.01,2013-04-08 21:03:00,
2013-04-08 17:08:00,81.5,57.5,30.08,SW,218,0.0,2.0,44,0.00,,---,0.00,555.00,VWS V14.01,2013-04-08 21:08:00,
2013-04-08 17:13:00,81.2,56.6,30.08,ESE,122,1.0,7.0,43,0.00,,---,0.00,570.00,VWS V14.01,2013-04-08 21:13:00,
2013-04-08 17:18:00,81.2,56.6,30.08,SSE,167,0.0,4.0,43,0.00,,---,0.00,619.00,VWS V14.01,2013-04-08 21:18:00,
2013-04-08 17:23:00,81.6,57.6,30.08,SSW,210,1.0,8.0,44,0.00,,---,0.00,591.00,VWS V14.01,2013-04-08 21:23:00,
2013-04-08 17:28:00,82.0,57.3,30.08,SSW,196,2.0,7.0,43,0.00,,---,0.00,571.00,VWS V14.01,2013-04-08 21:28:00,
2013-04-08 17:33:00,82.0,56.0,30.08,SW,214,0.0,10.0,41,0.00,,---,0.00,197.00,VWS V14.01,2013-04-08 21:33:00,
2013-04-08 17:38:00,81.4,56.8,30.08,WSW,240,6.0,7.0,43,0.00,,---,0.00,287.00,VWS V14.01,2013-04-08 21:38:00,
2013-04-08 17:44:00,80.9,56.3,30.08,SW,221,7.0,10.0,43,0.00,,---,0.00,146.00,VWS V14.01,2013-04-08 21:44:00,
2013-04-08 17:49:00,80.3,55.1,30.08,SSW,203,8.0,11.0,42,0.00,,---,0.00,404.00,VWS V14.01,2013-04-08 21:49:00,
2013-04-08 17:54:00,80.3,55.8,30.08,WSW,237,5.0,10.0,43,0.00,,---,0.00,364.00,VWS V14.01,2013-04-08 21:54:00,
2013-04-08 17:59:00,80.4,56.5,30.08,WSW,240,6.0,11.0,44,0.00,,---,0.00,346.00,VWS V14.01,2013-04-08 21:59:00,
2013-04-08 18:04:00,80.4,55.9,30.08,SSW,207,8.0,12.0,43,0.00,,---,0.00,292.00,VWS V14.01,2013-04-08 22:04:00,
2013-04-08 18:10:00,80.2,56.3,30.08,SW,234,9.0,10.0,44,0.00,,---,0.00,316.00,VWS V14.01,2013-04-08 22:10:00,
2013-04-08 18:15:00,80.0,56.8,30.08,SW,231,3.0,10.0,45,0.00,,---,0.00,248.00,VWS V14.01,2013-04-08 22:15:00,
2013-04-08 18:20:00,80.0,56.8,30.08,SW,232,5.0,6.0,45,0.00,,---,0.00,288.00,VWS V14.01,2013-04-08 22:20:00,
2013-04-08 18:25:00,80.0,56.8,30.08,SSW,213,1.0,7.0,45,0.00,,---,0.00,258.00,VWS V14.01,2013-04-08 22:25:00,
2013-04-08 18:30:00,80.1,56.2,30.08,SSW,200,5.0,7.0,44,0.00,,---,0.00,221.00,VWS V14.01,2013-04-08 22:30:00,
2013-04-08 18:35:00,80.1,56.2,30.08,SSW,212,3.0,8.0,44,0.00,,---,0.00,204.00,VWS V14.01,2013-04-08 22:35:00,
2013-04-08 18:41:00,80.1,56.9,30.08,SSW,209,4.0,7.0,45,0.00,,---,0.00,186.00,VWS V14.01,2013-04-08 22:41:00,
2013-04-08 18:46:00,80.0,56.8,30.08,SSW,205,5.0,9.0,45,0.00,,---,0.00,163.00,VWS V14.01,2013-04-08 22:46:00,
2013-04-08 18:51:00,79.8,56.0,30.08,SSW,209,0.0,9.0,44,0.00,,---,0.00,142.00,VWS V14.01,2013-04-08 22:51:00,
2013-04-08 18:56:00,79.6,56.4,30.08,SSW,203,2.0,3.0,45,0.00,,---,0.00,116.00,VWS V14.01,2013-04-08 22:56:00,
2013-04-08 19:02:00,79.4,56.2,30.08,SSW,204,0.0,2.0,45,0.00,,---,0.00,90.00,VWS V14.01,2013-04-08 23:02:00,
2013-04-08 19:07:00,79.2,56.7,30.08,SSW,205,6.0,7.0,46,0.00,,---,0.00,46.00,VWS V14.01,2013-04-08 23:07:00,
2013-04-08 19:12:00,78.8,56.3,30.08,SSW,209,0.0,4.0,46,0.00,,---,0.00,70.00,VWS V14.01,2013-04-08 23:12:00,
2013-04-08 19:17:00,78.5,57.2,30.08,SSW,211,0.0,4.0,48,0.00,,---,0.00,56.00,VWS V14.01,2013-04-08 23:17:00,
2013-04-08 19:22:00,78.3,57.0,30.08,SSW,211,3.0,4.0,48,0.00,,---,0.00,42.00,VWS V14.01,2013-04-08 23:22:00,
2013-04-08 19:27:00,78.1,56.8,30.09,SSW,209,0.0,0.0,48,0.00,,---,0.00,33.00,VWS V14.01,2013-04-08 23:27:00,
2013-04-08 19:32:00,77.9,56.7,30.09,SSW,209,0.0,0.0,48,0.00,,---,0.00,25.00,VWS V14.01,2013-04-08 23:32:00,
2013-04-08 19:37:00,77.6,56.4,30.09,SSW,209,0.0,0.0,48,0.00,,---,0.00,18.00,VWS V14.01,2013-04-08 23:37:00,
2013-04-08 19:42:00,77.4,56.8,30.09,SSW,209,0.0,0.0,49,0.00,,---,0.00,11.00,VWS V14.01,2013-04-08 23:42:00,
2013-04-08 19:47:00,77.1,57.0,30.09,SSW,209,0.0,0.0,50,0.00,,---,0.00,7.00,VWS V14.01,2013-04-08 23:47:00,
2013-04-08 19:52:00,76.6,57.1,30.09,SSW,209,0.0,0.0,51,0.00,,---,0.00,0.00,VWS V14.01,2013-04-08 23:52:00,
2013-04-08 19:58:00,76.2,57.3,30.09,SSW,209,0.0,0.0,52,0.00,,---,0.00,0.00,VWS V14.01,2013-04-08 23:58:00,
2013-04-08 20:03:00,75.7,57.4,30.09,SSW,209,0.0,0.0,53,0.00,,---,0.00,0.00,VWS V14.01,2013-04-09 00:03:00,
2013-04-08 20:08:00,75.1,56.8,30.09,South,173,1.0,6.0,53,0.00,,---,0.00,0.00,VWS V14.01,2013-04-09 00:08:00,
2013-04-08 20:13:00,74.5,57.3,30.09,SSE,150,0.0,5.0,55,0.00,,---,0.00,0.00,VWS V14.01,2013-04-09 00:13:00,
2013-04-08 20:18:00,74.0,57.3,30.10,SSE,150,0.0,2.0,56,0.00,,---,0.00,0.00,VWS V14.01,2013-04-09 00:18:00,
2013-04-08 20:23:00,73.7,57.5,30.09,SSE,150,0.0,0.0,57,0.00,,---,0.00,0.00,VWS V14.01,2013-04-09 00:23:00,
2013-04-08 20:28:00,73.5,57.8,30.10,SSE,150,0.0,0.0,58,0.00,,---,0.00,0.00,VWS V14.01,2013-04-09 00:28:00,
2013-04-08 20:33:00,73.1,57.9,30.10,SSE,163,2.0,7.0,59,0.00,,---,0.00,0.00,VWS V14.01,2013-04-09 00:33:00,
2013-04-08 20:39:00,72.7,58.5,30.10,SSE,150,0.0,5.0,61,0.00,,---,0.00,0.00,VWS V14.01,2013-04-09 00:39:00,
2013-04-08 20:44:00,72.4,58.7,30.10,SSE,159,0.0,6.0,62,0.00,,---,0.00,0.00,VWS V14.01,2013-04-09 00:44:00,
2013-04-08 20:49:00,72.2,58.9,30.10,SSE,148,0.0,5.0,63,0.00,,---,0.00,0.00,VWS V14.01,2013-04-09 00:49:00,
2013-04-08 20:54:00,72.0,59.2,30.11,SSE,162,0.0,7.0,64,0.00,,---,0.00,0.00,VWS V14.01,2013-04-09 00:54:00,
2013-04-08 20:59:00,71.8,59.0,30.11,SSE,161,0.0,1.0,64,0.00,,---,0.00,0.00,VWS V14.01,2013-04-09 00:59:00,
2013-04-08 21:04:00,71.5,58.7,30.12,SE,141,0.0,7.0,64,0.00,,---,0.00,0.00,VWS V14.01,2013-04-09 01:04:00,
2013-04-08 21:09:00,71.3,58.9,30.12,SE,145,1.0,4.0,65,0.00,,---,0.00,0.00,VWS V14.01,2013-04-09 01:09:00,
2013-04-08 21:14:00,71.1,58.8,30.12,SE,142,0.0,5.0,65,0.00,,---,0.00,0.00,VWS V14.01,2013-04-09 01:14:00,
2013-04-08 21:20:00,70.9,58.1,30.12,South,186,0.0,5.0,64,0.00,,---,0.00,0.00,VWS V14.01,2013-04-09 01:20:00,
2013-04-08 21:25:00,70.6,57.8,30.12,SE,143,0.0,3.0,64,0.00,,---,0.00,0.00,VWS V14.01,2013-04-09 01:25:00,
2013-04-08 21:30:00,70.4,57.7,30.12,SE,146,0.0,1.0,64,0.00,,---,0.00,0.00,VWS V14.01,2013-04-09 01:30:00,
2013-04-08 21:35:00,70.2,57.9,30.12,SSE,155,1.0,7.0,65,0.00,,---,0.00,0.00,VWS V14.01,2013-04-09 01:35:00,
2013-04-08 21:40:00,70.0,57.7,30.13,SSE,148,0.0,7.0,65,0.00,,---,0.00,0.00,VWS V14.01,2013-04-09 01:40:00,
2013-04-08 21:45:00,69.9,57.6,30.13,SSE,163,6.0,6.0,65,0.00,,---,0.00,0.00,VWS V14.01,2013-04-09 01:45:00,
2013-04-08 21:51:00,69.7,57.8,30.13,SSE,161,1.0,7.0,66,0.00,,---,0.00,0.00,VWS V14.01,2013-04-09 01:51:00,
2013-04-08 21:56:00,69.5,57.7,30.13,SSE,153,1.0,6.0,66,0.00,,---,0.00,0.00,VWS V14.01,2013-04-09 01:56:00,
2013-04-08 22:01:00,69.2,57.4,30.13,SE,126,0.0,6.0,66,0.00,,---,0.00,0.00,VWS V14.01,2013-04-09 02:01:00,
2013-04-08 22:06:00,69.0,57.6,30.13,SE,130,0.0,1.0,67,0.00,,---,0.00,0.00,VWS V14.01,2013-04-09 02:06:00,
2013-04-08 22:11:00,68.8,57.4,30.13,SE,146,1.0,5.0,67,0.00,,---,0.00,0.00,VWS V14.01,2013-04-09 02:11:00,
2013-04-08 22:16:00,68.6,57.6,30.13,South,175,0.0,5.0,68,0.00,,---,0.00,0.00,VWS V14.01,2013-04-09 02:16:00,
2013-04-08 22:21:00,68.5,57.5,30.14,South,169,2.0,5.0,68,0.00,,---,0.00,0.00,VWS V14.01,2013-04-09 02:21:00,
2013-04-08 22:26:00,68.3,57.3,30.14,SE,144,0.0,0.0,68,0.00,,---,0.00,0.00,VWS V14.01,2013-04-09 02:26:00,
2013-04-08 22:31:00,68.1,57.6,30.14,SE,145,0.0,0.0,69,0.00,,---,0.00,0.00,VWS V14.01,2013-04-09 02:31:00,
2013-04-08 22:37:00,67.9,57.4,30.14,SE,144,0.0,0.0,69,0.00,,---,0.00,0.00,VWS V14.01,2013-04-09 02:37:00,
2013-04-08 22:42:00,67.7,57.6,30.14,SE,146,0.0,0.0,70,0.00,,---,0.00,0.00,VWS V14.01,2013-04-09 02:42:00,
2013-04-08 22:47:00,67.6,57.5,30.14,SE,145,0.0,0.0,70,0.00,,---,0.00,0.00,VWS V14.01,2013-04-09 02:47:00,
2013-04-08 22:52:00,67.4,57.7,30.14,SE,145,0.0,1.0,71,0.00,,---,0.00,0.00,VWS V14.01,2013-04-09 02:52:00,
2013-04-08 22:57:00,67.2,57.5,30.14,SE,145,0.0,0.0,71,0.00,,---,0.00,0.00,VWS V14.01,2013-04-09 02:57:00,
2013-04-08 23:02:00,67.0,57.7,30.14,SE,145,0.0,0.0,72,0.00,,---,0.00,0.00,VWS V14.01,2013-04-09 03:02:00,
2013-04-08 23:07:00,66.7,57.4,30.14,SE,145,0.0,2.0,72,0.00,,---,0.00,0.00,VWS V14.01,2013-04-09 03:07:00,
2013-04-08 23:13:00,66.5,57.6,30.14,SE,145,0.0,0.0,73,0.00,,---,0.00,0.00,VWS V14.01,2013-04-09 03:13:00,
2013-04-08 23:18:00,66.3,57.4,30.14,SE,144,0.0,0.0,73,0.00,,---,0.00,0.00,VWS V14.01,2013-04-09 03:18:00,
2013-04-08 23:23:00,66.1,57.6,30.14,SE,144,0.0,0.0,74,0.00,,---,0.00,0.00,VWS V14.01,2013-04-09 03:23:00,
2013-04-08 23:28:00,65.9,57.8,30.15,SE,144,0.0,1.0,75,0.00,,---,0.00,0.00,VWS V14.01,2013-04-09 03:28:00,
2013-04-08 23:33:00,65.7,57.9,30.15,SE,146,0.0,0.0,76,0.00,,---,0.00,0.00,VWS V14.01,2013-04-09 03:33:00,
2013-04-08 23:38:00,65.5,57.7,30.15,SE,146,0.0,1.0,76,0.00,,---,0.00,0.00,VWS V14.01,2013-04-09 03:38:00,
2013-04-08 23:43:00,65.4,57.7,30.14,SE,146,0.0,0.0,76,0.00,,---,0.00,0.00,VWS V14.01,2013-04-09 03:43:00,
2013-04-08 23:48:00,65.2,57.8,30.14,SE,146,0.0,0.0,77,0.00,,---,0.00,0.00,VWS V14.01,2013-04-09 03:48:00,
2013-04-08 23:53:00,65.0,58.0,30.15,SE,146,0.0,0.0,78,0.00,,---,0.00,0.00,VWS V14.01,2013-04-09 03:53:00,
2013-04-08 23:59:00,64.9,58.2,30.15,SE,146,0.0,0.0,79,0.00,,---,0.00,0.00,VWS V14.01,2013-04-09 03:59:00,